Main page

Airports :

Current weather observation

The report was made 1 hour and 19 minutes ago, at 12:00 UTC
Wind 6 kt from the North
Temperature 26°C
Humidity 54%
Pressure 1017 hPa
Visibility 10 km or more
Few clouds at a height of 3000 ft

METAR: OTBD 301200Z 01006KT 9999 FEW030 26/16 Q1017 NOSIG

Time: 13:19 (13:19 UTC)


The report was made 2 hours and 19 minutes ago, at 11:00 UTC
Forecast valid from 30 at 12 UTC to 01 at 18 UTC
Wind 10 kt from the Northeast
Visibility 10 km or more
Few clouds at a height of 3000 ft
from 30 at 20 UTC to 30 at 22 UTC
Wind 5 kt from the West/Northwest
Visibility: 8000 m
from 01 at 08 UTC to 01 at 10 UTC
Wind 8 kt from the East

TAF: OTBD 301100Z 3012/0118 04010KT 9999 FEW030 BECMG 3020/3022 30005KT 8000 NSC BECMG 0108/0110 08008KT


Weather observations and forecasts of more than 4000 airports (METAR and TAF reports).

The available stations are represented by yellow and red dots on the map.

Hover mouse over dot to see the name of the station.

Then click to see weather observations and forecasts.

To change the map : click on the green buttons with a black cross to zoom in, on the green button with a dash to zoom out, or on the green arrows for adjacent maps.